createdAt,value
2019-06-26T00:01:12.266Z,51.28
2019-06-26T00:03:42.423Z,51.55
2019-06-26T00:06:12.680Z,52.00
2019-06-26T00:08:42.953Z,52.21
2019-06-26T00:11:12.990Z,52.20
2019-06-26T00:13:43.117Z,53.41
2019-06-26T00:16:13.470Z,53.30
2019-06-26T00:18:43.756Z,52.45
2019-06-26T00:21:13.809Z,52.93
2019-06-26T00:23:44.157Z,53.21
2019-06-26T00:26:14.237Z,53.66
2019-06-26T00:28:44.283Z,53.10
2019-06-26T00:31:14.529Z,52.28
2019-06-26T00:33:44.777Z,52.93
2019-06-26T00:36:14.947Z,51.37
2019-06-26T00:38:44.962Z,51.69
2019-06-26T00:41:15.354Z,51.40
2019-06-26T00:43:45.624Z,51.58
2019-06-26T00:46:15.611Z,51.62
2019-06-26T00:48:45.551Z,52.09
2019-06-26T00:51:15.900Z,52.20
2019-06-26T00:53:46.240Z,52.02
2019-06-26T00:56:16.296Z,52.82
2019-06-26T00:58:46.444Z,53.70
2019-06-26T01:01:16.852Z,53.92
2019-06-26T01:03:48.054Z,56.73
2019-06-26T01:06:52.537Z,52.68
2019-06-26T01:09:22.814Z,53.14
2019-06-26T01:11:52.768Z,52.83
2019-06-26T01:14:22.808Z,52.31
2019-06-26T01:16:53.333Z,52.21
2019-06-26T01:19:23.719Z,51.56
2019-06-26T01:21:53.746Z,51.02
2019-06-26T01:24:23.746Z,51.41
2019-06-26T01:26:54.090Z,50.59
2019-06-26T01:29:24.285Z,52.57
2019-06-26T01:31:54.294Z,53.96
2019-06-26T01:34:24.341Z,54.10
2019-06-26T01:36:54.567Z,54.34
2019-06-26T01:39:24.807Z,53.14
2019-06-26T01:41:54.819Z,52.53
2019-06-26T01:44:25.127Z,53.75
2019-06-26T01:46:55.306Z,52.84
2019-06-26T01:49:25.410Z,52.82
2019-06-26T01:51:55.629Z,52.36
2019-06-26T01:54:25.984Z,51.98
2019-06-26T01:56:56.030Z,52.05
2019-06-26T01:59:26.071Z,53.04
2019-06-26T02:01:56.298Z,53.49
2019-06-26T02:04:26.759Z,52.66
2019-06-26T02:06:56.917Z,52.82
2019-06-26T02:09:26.973Z,53.50
2019-06-26T02:12:00.338Z,53.13
2019-06-26T02:14:31.600Z,53.21
2019-06-26T02:17:01.004Z,52.38
2019-06-26T02:19:31.034Z,52.21
2019-06-26T02:22:01.300Z,52.75
2019-06-26T02:24:31.582Z,51.82
2019-06-26T02:27:01.730Z,51.54
2019-06-26T02:29:31.725Z,50.69
2019-06-26T02:32:01.860Z,51.57
2019-06-26T02:34:32.146Z,51.49
2019-06-26T02:37:02.183Z,51.85
2019-06-26T02:39:32.109Z,52.29
2019-06-26T02:42:02.400Z,52.09
2019-06-26T02:44:51.275Z,52.07
2019-06-26T02:47:18.246Z,52.06
2019-06-26T02:49:36.323Z,52.79
2019-06-26T02:52:06.711Z,53.26
2019-06-26T02:54:36.927Z,53.89
2019-06-26T02:57:07.071Z,53.60
2019-06-26T02:59:37.178Z,53.35
2019-06-26T03:02:07.375Z,53.14
2019-06-26T03:04:37.503Z,54.08
2019-06-26T03:07:07.824Z,53.42
2019-06-26T03:09:38.125Z,53.66
2019-06-26T03:12:08.280Z,54.00
2019-06-26T03:14:38.247Z,53.67
2019-06-26T03:17:08.597Z,54.33
2019-06-26T03:19:38.736Z,53.31
2019-06-26T03:22:08.712Z,53.15
2019-06-26T03:24:38.743Z,53.45
2019-06-26T03:27:09.350Z,53.45
2019-06-26T03:29:39.674Z,53.66
2019-06-26T03:32:09.713Z,54.06
2019-06-26T03:34:39.783Z,53.75
2019-06-26T03:37:09.891Z,54.85
2019-06-26T03:39:40.112Z,53.25
2019-06-26T03:42:10.216Z,55.10
2019-06-26T03:44:40.441Z,53.51
2019-06-26T03:47:10.535Z,54.05
2019-06-26T03:49:40.656Z,53.15
2019-06-26T03:52:10.784Z,52.90
2019-06-26T03:54:41.030Z,52.99
2019-06-26T03:57:10.926Z,52.50
2019-06-26T03:59:41.043Z,51.71
2019-06-26T04:02:11.305Z,52.62
2019-06-26T04:04:41.513Z,52.55
2019-06-26T04:07:11.489Z,52.84
2019-06-26T04:09:41.594Z,52.15
2019-06-26T04:12:11.918Z,52.07
2019-06-26T04:14:41.885Z,52.10
2019-06-26T04:17:11.927Z,52.13
2019-06-26T04:19:41.825Z,51.81
2019-06-26T04:22:12.150Z,51.95
2019-06-26T04:24:42.197Z,52.60
2019-06-26T04:27:12.305Z,51.26
2019-06-26T04:29:42.580Z,51.59
2019-06-26T04:32:12.655Z,50.47
2019-06-26T04:34:42.660Z,51.30
2019-06-26T04:37:12.999Z,51.13
2019-06-26T04:39:43.325Z,50.18
2019-06-26T04:42:13.413Z,50.54
2019-06-26T04:44:43.409Z,49.96
2019-06-26T04:47:13.647Z,50.22
2019-06-26T04:49:43.885Z,49.49
2019-06-26T04:52:13.880Z,48.88
2019-06-26T04:54:43.878Z,49.35
2019-06-26T04:57:13.937Z,48.76
2019-06-26T04:59:44.233Z,49.48
2019-06-26T05:02:14.399Z,48.90
2019-06-26T05:04:44.713Z,48.04
2019-06-26T05:07:14.826Z,48.08
2019-06-26T05:09:44.858Z,47.73
2019-06-26T05:12:15.179Z,49.43
2019-06-26T05:14:45.488Z,47.84
2019-06-26T05:17:15.468Z,47.01
2019-06-26T05:19:45.425Z,46.27
2019-06-26T05:22:15.658Z,46.50
2019-06-26T05:24:46.602Z,46.18
2019-06-26T05:27:16.704Z,45.85
2019-06-26T05:29:46.818Z,46.17
2019-06-26T05:32:17.212Z,45.75
2019-06-26T05:34:47.479Z,46.65
2019-06-26T05:37:17.460Z,45.03
2019-06-26T05:39:47.533Z,43.65
2019-06-26T05:42:17.736Z,44.76
2019-06-26T05:44:47.761Z,46.39
2019-06-26T05:47:18.180Z,44.37
2019-06-26T05:49:48.468Z,43.75
2019-06-26T05:52:18.725Z,44.18
2019-06-26T05:54:48.649Z,45.26
2019-06-26T05:57:18.986Z,44.76
2019-06-26T05:59:49.321Z,44.93
2019-06-26T06:02:19.486Z,44.78
2019-06-26T06:04:49.529Z,44.35
2019-06-26T06:07:20.010Z,43.23
2019-06-26T06:09:50.275Z,42.68
2019-06-26T06:12:20.270Z,42.58
2019-06-26T06:14:50.371Z,42.86
2019-06-26T06:17:20.662Z,43.84
2019-06-26T06:19:50.971Z,44.03
2019-06-26T06:22:21.078Z,43.98
2019-06-26T06:24:51.303Z,43.46
2019-06-26T06:27:21.276Z,43.51
2019-06-26T06:29:51.315Z,43.58
2019-06-26T06:32:21.678Z,44.14
2019-06-26T06:34:51.901Z,43.01
2019-06-26T06:37:21.887Z,43.00
2019-06-26T06:39:51.938Z,44.51
2019-06-26T06:42:22.025Z,45.17
2019-06-26T06:44:52.236Z,45.31
2019-06-26T06:47:22.303Z,45.49
2019-06-26T06:49:52.374Z,44.40
2019-06-26T06:52:22.497Z,45.54
2019-06-26T06:54:52.640Z,45.97
2019-06-26T06:57:22.595Z,46.57
2019-06-26T06:59:52.672Z,46.07
2019-06-26T07:02:23.019Z,46.71
2019-06-26T07:04:52.929Z,46.61
2019-06-26T07:07:23.165Z,46.12
2019-06-26T07:09:53.422Z,45.81
2019-06-26T07:12:23.602Z,44.82
2019-06-26T07:14:53.611Z,45.63
2019-06-26T07:17:23.864Z,45.95
2019-06-26T07:19:54.162Z,45.89
2019-06-26T07:22:24.076Z,44.19
2019-06-26T07:24:54.135Z,42.21
2019-06-26T07:27:24.429Z,43.64
2019-06-26T07:29:54.763Z,44.69
2019-06-26T07:32:24.917Z,44.21
2019-06-26T07:34:54.953Z,45.16
2019-06-26T07:37:25.211Z,43.69
2019-06-26T07:40:00.290Z,43.22
2019-06-26T07:42:27.245Z,42.83
2019-06-26T07:44:57.224Z,42.20
2019-06-26T07:47:41.908Z,42.93
2019-06-26T07:49:59.506Z,41.80
2019-06-26T07:52:29.405Z,43.70
2019-06-26T07:54:59.413Z,43.57
2019-06-26T07:57:29.477Z,42.93
2019-06-26T07:59:59.801Z,43.89
2019-06-26T08:02:29.785Z,44.06
2019-06-26T08:04:59.757Z,42.32
2019-06-26T08:07:30.048Z,43.68
2019-06-26T08:10:00.316Z,42.18
2019-06-26T08:12:30.371Z,41.81
2019-06-26T08:15:00.390Z,41.13
2019-06-26T08:17:30.598Z,40.62
2019-06-26T08:20:00.945Z,41.16
2019-06-26T08:22:30.925Z,40.71
2019-06-26T08:25:01.133Z,40.83
2019-06-26T08:27:31.184Z,42.54
2019-06-26T08:30:01.249Z,43.00
2019-06-26T08:32:31.673Z,43.74
2019-06-26T08:35:02.048Z,42.98
2019-06-26T08:37:32.278Z,43.48
2019-06-26T08:40:02.421Z,45.13
2019-06-26T08:42:32.632Z,44.86
2019-06-26T08:45:02.968Z,44.70
2019-06-26T08:47:33.158Z,44.27
2019-06-26T08:50:03.325Z,44.50
2019-06-26T08:52:33.749Z,44.48
2019-06-26T08:55:04.052Z,44.28
2019-06-26T08:57:34.119Z,44.46
2019-06-26T09:00:04.682Z,45.81
2019-06-26T09:02:34.994Z,45.85
2019-06-26T09:05:06.703Z,45.47
2019-06-26T09:07:37.010Z,45.90
2019-06-26T09:10:07.603Z,45.68
2019-06-26T09:12:37.799Z,46.09
2019-06-26T09:15:08.165Z,44.86
2019-06-26T09:17:38.420Z,45.73
2019-06-26T09:20:10.149Z,45.29
2019-06-26T09:22:40.165Z,45.28
2019-06-26T09:25:21.487Z,44.37
2019-06-26T09:27:43.052Z,44.03
2019-06-26T09:30:13.681Z,43.95
2019-06-26T09:32:43.706Z,44.43
2019-06-26T09:35:15.366Z,43.86
2019-06-26T09:37:45.627Z,44.64
2019-06-26T09:40:17.188Z,44.99
2019-06-26T09:42:47.396Z,43.90
2019-06-26T09:45:17.821Z,43.58
2019-06-26T09:47:47.832Z,48.72
2019-06-26T09:50:18.391Z,44.41
2019-06-26T09:52:48.656Z,45.53
2019-06-26T09:55:18.926Z,44.99
2019-06-26T09:57:48.974Z,45.57
2019-06-26T10:00:20.249Z,45.49
2019-06-26T10:02:50.509Z,46.10
2019-06-26T10:05:21.025Z,45.97
2019-06-26T10:07:51.026Z,43.00
2019-06-26T10:10:21.737Z,43.92
2019-06-26T10:12:52.236Z,43.64
2019-06-26T10:15:22.721Z,43.92
2019-06-26T10:17:52.951Z,44.29
2019-06-26T10:20:23.163Z,43.47
2019-06-26T10:22:53.523Z,42.57
2019-06-26T10:25:23.545Z,43.66
2019-06-26T10:27:54.114Z,43.92
2019-06-26T10:30:24.461Z,42.72
2019-06-26T10:32:54.880Z,42.77
2019-06-26T10:35:25.106Z,41.38
2019-06-26T10:37:55.386Z,42.05
2019-06-26T10:40:25.678Z,41.66
2019-06-26T10:42:55.832Z,41.88
2019-06-26T10:45:26.012Z,44.10
2019-06-26T10:47:56.226Z,42.82
2019-06-26T10:50:26.697Z,42.33
2019-06-26T10:52:56.788Z,42.20
2019-06-26T10:55:27.004Z,41.99
2019-06-26T10:57:57.270Z,43.15
2019-06-26T11:00:29.283Z,43.03
2019-06-26T11:02:59.298Z,41.81
2019-06-26T11:05:29.678Z,43.93
2019-06-26T11:07:59.651Z,43.80
2019-06-26T11:10:29.599Z,45.85
2019-06-26T11:13:00.040Z,44.55
2019-06-26T11:15:30.350Z,44.36
2019-06-26T11:18:00.349Z,45.62
2019-06-26T11:20:30.503Z,43.40
2019-06-26T11:23:00.844Z,44.47
2019-06-26T11:25:31.027Z,44.68
2019-06-26T11:28:01.061Z,43.72
2019-06-26T11:30:31.244Z,44.16
2019-06-26T11:33:01.667Z,43.87
2019-06-26T11:35:32.052Z,44.30
2019-06-26T11:38:02.042Z,46.21
2019-06-26T11:40:32.144Z,45.09
2019-06-26T11:43:02.345Z,46.89
2019-06-26T11:45:32.472Z,46.47
2019-06-26T11:48:02.801Z,46.10
2019-06-26T11:50:32.896Z,45.93
2019-06-26T11:53:03.042Z,44.38
2019-06-26T11:55:33.148Z,45.31
2019-06-26T11:58:03.464Z,46.64
2019-06-26T12:00:33.729Z,44.46
2019-06-26T12:03:05.669Z,45.30
2019-06-26T12:05:35.577Z,46.64
2019-06-26T12:08:05.843Z,43.67
2019-06-26T12:10:35.958Z,44.63
2019-06-26T12:13:06.008Z,45.66
2019-06-26T12:15:36.023Z,45.25
2019-06-26T12:18:06.368Z,44.90
2019-06-26T12:20:36.657Z,45.40
2019-06-26T12:23:06.565Z,46.87
2019-06-26T12:25:36.662Z,45.41
2019-06-26T12:28:07.032Z,45.34
2019-06-26T12:30:37.149Z,45.33
2019-06-26T12:33:07.482Z,45.10
2019-06-26T12:35:37.821Z,44.82
2019-06-26T12:38:07.971Z,45.00
2019-06-26T12:40:38.011Z,44.68
2019-06-26T12:43:08.253Z,45.01
2019-06-26T12:45:38.461Z,44.68
2019-06-26T12:48:08.680Z,44.05
2019-06-26T12:50:38.705Z,44.69
2019-06-26T12:53:08.977Z,42.08
2019-06-26T12:55:39.243Z,42.91
2019-06-26T12:58:14.142Z,42.22
2019-06-26T13:00:41.254Z,42.34
2019-06-26T13:03:11.452Z,42.25
2019-06-26T13:05:41.777Z,42.41
2019-06-26T13:08:11.825Z,41.77
2019-06-26T13:10:49.831Z,42.25
2019-06-26T13:13:13.778Z,41.68
2019-06-26T13:15:44.230Z,41.55
2019-06-26T13:18:14.289Z,41.18
2019-06-26T13:20:52.894Z,41.34
2019-06-26T13:23:16.428Z,40.41
2019-06-26T13:25:46.835Z,39.63
2019-06-26T13:28:16.816Z,40.91
2019-06-26T13:30:46.822Z,39.70
2019-06-26T13:33:17.170Z,41.54
2019-06-26T13:35:47.282Z,42.28
2019-06-26T13:38:17.397Z,41.70
2019-06-26T13:40:47.471Z,40.43
2019-06-26T13:43:17.786Z,41.27
2019-06-26T13:45:47.818Z,42.03
2019-06-26T13:48:18.249Z,42.91
2019-06-26T13:50:48.339Z,43.12
2019-06-26T13:53:18.400Z,44.31
2019-06-26T13:55:48.398Z,44.50
2019-06-26T13:58:18.707Z,45.22
2019-06-26T14:00:48.984Z,46.44
2019-06-26T14:03:19.043Z,45.86
2019-06-26T14:05:49.154Z,46.87
2019-06-26T14:08:19.526Z,48.25
2019-06-26T14:10:49.714Z,50.26
2019-06-26T14:13:19.532Z,51.60
2019-06-26T14:15:49.582Z,52.52
2019-06-26T14:18:19.783Z,53.09
2019-06-26T14:20:50.090Z,53.11
2019-06-26T14:23:20.238Z,53.81
2019-06-26T14:25:50.331Z,53.43
2019-06-26T14:28:20.350Z,51.78
2019-06-26T14:30:50.588Z,51.58
2019-06-26T14:33:20.751Z,51.14
2019-06-26T14:35:51.026Z,51.56
2019-06-26T14:38:21.166Z,51.59
2019-06-26T14:40:51.168Z,51.07
2019-06-26T14:43:21.403Z,50.67
2019-06-26T14:45:51.798Z,50.49
2019-06-26T14:48:21.792Z,47.87
2019-06-26T14:50:52.270Z,45.62
2019-06-26T14:53:22.435Z,44.69
2019-06-26T14:55:54.620Z,43.93
2019-06-26T14:58:24.657Z,44.71
2019-06-26T15:00:54.780Z,44.48
2019-06-26T15:03:30.868Z,45.39
2019-06-26T15:06:15.344Z,44.71
2019-06-26T15:08:32.810Z,46.79
2019-06-26T15:11:03.217Z,47.77
2019-06-26T15:13:33.272Z,47.71
2019-06-26T15:16:03.190Z,49.79
2019-06-26T15:18:33.476Z,51.26
2019-06-26T15:21:04.062Z,52.35
2019-06-26T15:23:34.130Z,49.09
2019-06-26T15:26:04.076Z,49.55
2019-06-26T15:28:34.359Z,50.32
2019-06-26T15:31:04.489Z,52.34
2019-06-26T15:33:36.687Z,50.85
2019-06-26T15:36:06.354Z,52.59
2019-06-26T15:38:36.592Z,57.03
2019-06-26T15:41:06.738Z,59.57
2019-06-26T15:43:36.773Z,60.52
2019-06-26T15:46:06.863Z,58.91
2019-06-26T15:48:37.200Z,59.17
2019-06-26T15:51:07.595Z,58.81
2019-06-26T15:53:37.597Z,58.12
2019-06-26T15:56:07.565Z,59.36
2019-06-26T15:58:37.885Z,60.61
2019-06-26T16:01:08.106Z,59.54
2019-06-26T16:03:38.111Z,56.49
2019-06-26T16:06:08.166Z,58.32
2019-06-26T16:08:38.415Z,56.88
2019-06-26T16:11:08.590Z,56.78
2019-06-26T16:13:38.637Z,56.04
2019-06-26T16:16:08.805Z,55.54
2019-06-26T16:18:43.765Z,55.32
2019-06-26T16:21:14.128Z,54.19
2019-06-26T16:23:44.313Z,53.73
2019-06-26T16:26:14.430Z,54.28
2019-06-26T16:28:44.486Z,56.32
2019-06-26T16:31:14.467Z,55.98
2019-06-26T16:33:44.757Z,55.43
2019-06-26T16:36:14.815Z,55.52
2019-06-26T16:38:44.745Z,54.36
2019-06-26T16:41:15.406Z,53.97
2019-06-26T16:43:45.485Z,54.21
2019-06-26T16:46:15.769Z,54.60
2019-06-26T16:48:45.732Z,54.10
2019-06-26T16:51:15.751Z,54.08
2019-06-26T16:53:45.926Z,54.45
2019-06-26T16:56:16.181Z,54.50
2019-06-26T16:58:46.145Z,54.99
2019-06-26T17:01:16.288Z,55.27
2019-06-26T17:03:46.514Z,55.29
2019-06-26T17:06:16.647Z,55.42
2019-06-26T17:08:46.902Z,54.82
2019-06-26T17:11:17.077Z,55.44
2019-06-26T17:13:47.370Z,54.38
2019-06-26T17:16:17.448Z,54.54
2019-06-26T17:18:47.677Z,54.95
2019-06-26T17:21:18.051Z,54.66
2019-06-26T17:23:48.088Z,54.97
2019-06-26T17:26:18.210Z,54.93
2019-06-26T17:28:48.429Z,55.17
2019-06-26T17:31:18.688Z,55.18
2019-06-26T17:33:48.662Z,55.68
2019-06-26T17:36:18.674Z,55.29
2019-06-26T17:38:48.843Z,55.57
2019-06-26T17:41:19.240Z,54.51
2019-06-26T17:43:49.333Z,53.84
2019-06-26T17:46:19.514Z,54.54
2019-06-26T17:48:49.489Z,54.12
2019-06-26T17:51:19.485Z,53.88
2019-06-26T17:53:49.767Z,54.59
2019-06-26T17:56:19.888Z,54.25
2019-06-26T17:58:49.828Z,54.04
2019-06-26T18:01:19.727Z,54.33
2019-06-26T18:03:50.026Z,54.32
2019-06-26T18:06:20.487Z,54.11
2019-06-26T18:08:50.656Z,53.93
2019-06-26T18:11:20.767Z,53.95
2019-06-26T18:13:51.053Z,53.61
2019-06-26T18:16:21.326Z,53.67
2019-06-26T18:18:51.369Z,53.59
2019-06-26T18:21:21.657Z,53.49
2019-06-26T18:23:52.808Z,54.17
2019-06-26T18:26:22.957Z,53.45
2019-06-26T18:28:52.954Z,53.75
2019-06-26T18:31:23.229Z,53.21
2019-06-26T18:33:53.528Z,53.53
2019-06-26T18:36:23.567Z,53.38
2019-06-26T18:38:53.628Z,53.47
2019-06-26T18:41:23.994Z,53.27
2019-06-26T18:43:54.210Z,53.60
2019-06-26T18:46:25.067Z,53.48
2019-06-26T18:48:55.215Z,53.69
2019-06-26T18:51:25.567Z,53.72
2019-06-26T18:53:55.738Z,53.05
2019-06-26T18:56:25.855Z,53.61
2019-06-26T18:58:55.928Z,54.00
2019-06-26T19:01:26.352Z,54.22
2019-06-26T19:03:56.564Z,54.67
2019-06-26T19:06:26.832Z,54.34
2019-06-26T19:08:57.131Z,54.34
2019-06-26T19:11:27.402Z,54.70
2019-06-26T19:13:57.435Z,54.91
2019-06-26T19:16:27.632Z,54.54
2019-06-26T19:18:58.066Z,54.45
2019-06-26T19:21:28.243Z,54.59
2019-06-26T19:24:09.449Z,53.97
2019-06-26T19:26:30.253Z,53.99
2019-06-26T19:29:00.484Z,54.05
2019-06-26T19:31:30.567Z,53.47
2019-06-26T19:34:00.599Z,53.71
2019-06-26T19:36:30.601Z,53.87
2019-06-26T19:39:00.751Z,53.51
2019-06-26T19:41:30.904Z,53.67
2019-06-26T19:44:01.072Z,53.40
2019-06-26T19:46:31.122Z,53.09
2019-06-26T19:49:01.159Z,53.09
2019-06-26T19:51:31.357Z,53.16
2019-06-26T19:54:01.581Z,52.97
2019-06-26T19:56:31.533Z,53.06
2019-06-26T19:59:01.610Z,52.65
2019-06-26T20:01:31.750Z,53.01
2019-06-26T20:04:02.068Z,52.80
2019-06-26T20:06:32.222Z,52.73
2019-06-26T20:09:02.071Z,53.49
2019-06-26T20:11:32.225Z,52.21
2019-06-26T20:14:02.466Z,52.36
2019-06-26T20:16:32.454Z,53.08
2019-06-26T20:19:02.369Z,53.08
2019-06-26T20:21:32.516Z,52.86
2019-06-26T20:24:02.510Z,53.67
2019-06-26T20:26:32.638Z,53.55
2019-06-26T20:29:02.980Z,53.48
2019-06-26T20:31:33.049Z,53.53
2019-06-26T20:34:03.074Z,53.38
2019-06-26T20:39:16.615Z,53.32
2019-06-26T20:41:46.546Z,53.71
2019-06-26T20:44:16.589Z,53.68
2019-06-26T20:46:47.044Z,53.12
2019-06-26T20:49:18.371Z,53.50
2019-06-26T20:51:51.338Z,54.09
2019-06-26T20:54:21.355Z,53.66
2019-06-26T20:56:51.488Z,54.33
2019-06-26T20:59:21.791Z,54.38
2019-06-26T21:01:51.895Z,54.48
2019-06-26T21:04:21.842Z,53.55
2019-06-26T21:06:52.233Z,53.39
2019-06-26T21:09:22.248Z,54.59
2019-06-26T21:11:52.192Z,53.90
2019-06-26T21:14:22.232Z,54.49
2019-06-26T21:16:52.407Z,55.05
2019-06-26T21:19:22.354Z,54.62
2019-06-26T21:21:52.631Z,55.46
2019-06-26T21:24:22.800Z,55.73
2019-06-26T21:26:52.704Z,56.13
2019-06-26T21:29:22.767Z,56.97
2019-06-26T21:31:53.017Z,56.49
2019-06-26T21:34:23.054Z,57.09
2019-06-26T21:36:53.073Z,56.91
2019-06-26T21:39:23.205Z,57.40
2019-06-26T21:41:53.363Z,57.86
2019-06-26T21:44:23.578Z,58.11
2019-06-26T21:46:53.546Z,57.80
2019-06-26T21:49:23.548Z,58.57
2019-06-26T21:51:53.617Z,58.19
2019-06-26T21:54:23.832Z,57.90
2019-06-26T21:56:53.835Z,57.83
2019-06-26T21:59:24.167Z,58.34
2019-06-26T22:01:54.155Z,57.80
2019-06-26T22:04:24.438Z,57.53
2019-06-26T22:06:54.743Z,57.44
2019-06-26T22:09:25.080Z,58.14
2019-06-26T22:11:54.963Z,58.81
2019-06-26T22:14:25.137Z,58.92
2019-06-26T22:16:55.428Z,59.55
2019-06-26T22:19:25.755Z,58.88
2019-06-26T22:21:55.819Z,58.43
2019-06-26T22:24:25.858Z,58.51
2019-06-26T22:26:56.221Z,58.74
2019-06-26T22:29:26.454Z,59.20
2019-06-26T22:31:56.436Z,59.31
2019-06-26T22:34:26.471Z,58.59
2019-06-26T22:36:56.697Z,58.71
2019-06-26T22:39:26.694Z,59.35
2019-06-26T22:41:57.102Z,59.93
2019-06-26T22:44:27.435Z,60.66
2019-06-26T22:46:57.427Z,59.79
2019-06-26T22:49:27.517Z,60.04
2019-06-26T22:51:57.839Z,61.60
2019-06-26T22:54:28.189Z,60.24
2019-06-26T22:56:58.351Z,61.19
2019-06-26T22:59:28.303Z,61.48
2019-06-26T23:01:58.451Z,61.34
2019-06-26T23:04:28.767Z,61.68
2019-06-26T23:06:58.856Z,61.44
2019-06-26T23:09:28.777Z,61.35
2019-06-26T23:11:59.237Z,61.06
2019-06-26T23:14:29.502Z,60.48
2019-06-26T23:16:59.441Z,62.23
2019-06-26T23:19:29.512Z,61.34
2019-06-26T23:21:59.765Z,63.44
2019-06-26T23:24:30.013Z,62.07
2019-06-26T23:27:00.080Z,61.75
2019-06-26T23:29:30.015Z,60.84
2019-06-26T23:32:03.297Z,60.67
2019-06-26T23:34:32.297Z,60.76
2019-06-26T23:37:02.248Z,61.92
2019-06-26T23:39:32.339Z,62.31
2019-06-26T23:42:02.587Z,61.85
2019-06-26T23:44:32.721Z,62.29
2019-06-26T23:47:02.629Z,62.29
2019-06-26T23:49:32.671Z,62.34
2019-06-26T23:52:02.890Z,62.94
2019-06-26T23:54:33.102Z,62.96
2019-06-26T23:57:03.334Z,62.57
2019-06-26T23:59:33.605Z,63.00
